Time;durP1;ratioP1;P1;durP2;ratioP2;P2;SDS_P1;SDS_P2;PMS_P1;PMS_P2;Temp;Humidity;BMP_temperature;BMP_pressure;BME280_temperature;BME280_humidity;BME280_pressure;Samples;Min_cycle;Max_cycle;Signal;HPM_P1;HPM_P2
2021/05/12 07:30:44;;;;;;;6.28;2.28;;;11.20;99.90;;;;;;6091829;22;20091;-88
2021/05/12 07:33:11;;;;;;;;;;;11.30;99.90;;;;;;6186318;23;20009;-86
2021/05/12 07:35:39;;;;;;;7.43;2.00;;;11.30;99.90;;;;;;6184062;23;19920;-86
2021/05/12 07:38:07;;;;;;;5.28;1.65;;;11.30;99.90;;;;;;6184181;23;20325;-86
2021/05/12 07:40:34;;;;;;;4.97;1.70;;;11.30;99.90;;;;;;6183920;23;20380;-86
2021/05/12 07:43:05;;;;;;;5.63;1.77;;;11.40;99.90;;;;;;6184233;23;20072;-85
2021/05/12 07:45:33;;;;;;;5.35;1.98;;;11.50;99.90;;;;;;6185164;23;20486;-88
2021/05/12 07:48:13;;;;;;;4.60;1.30;;;11.50;99.90;;;;;;6183509;23;20092;-87
2021/05/12 07:50:41;;;;;;;6.68;1.58;;;11.60;99.90;;;;;;6183776;23;20013;-86
2021/05/12 07:53:08;;;;;;;5.88;1.73;;;11.70;99.90;;;;;;6184995;23;20399;-86
2021/05/12 07:55:36;;;;;;;6.60;2.00;;;11.80;99.90;;;;;;6184142;23;20456;-86
2021/05/12 07:58:04;;;;;;;6.97;2.00;;;11.90;99.90;;;;;;6183781;23;20387;-89
2021/05/12 08:00:33;;;;;;;7.50;2.20;;;11.90;99.90;;;;;;6183368;23;20084;-85
2021/05/12 08:03:00;;;;;;;;;;;12.00;99.90;;;;;;6184555;23;20608;-86
2021/05/12 08:05:27;;;;;;;6.28;1.83;;;12.00;99.90;;;;;;6183318;23;20248;-86
2021/05/12 08:07:55;;;;;;;7.13;2.10;;;12.00;99.90;;;;;;6183832;23;20005;-86
2021/05/12 08:10:22;;;;;;;4.90;2.05;;;12.00;99.90;;;;;;6183255;23;20016;-86
2021/05/12 08:12:49;;;;;;;6.40;2.13;;;12.00;99.90;;;;;;6183847;23;20024;-86
2021/05/12 08:15:16;;;;;;;7.88;2.15;;;12.00;99.90;;;;;;6183219;23;20464;-84
2021/05/12 08:17:42;;;;;;;4.93;2.15;;;12.00;99.90;;;;;;6184083;23;20021;-86
2021/05/12 08:20:10;;;;;;;4.90;2.17;;;12.00;99.90;;;;;;6184734;23;20503;-85
2021/05/12 08:22:36;;;;;;;5.40;1.75;;;12.00;99.90;;;;;;6185655;23;20013;-84
2021/05/12 08:25:04;;;;;;;4.95;1.85;;;12.00;99.90;;;;;;6183839;23;20017;-85
2021/05/12 08:27:31;;;;;;;4.45;1.85;;;12.00;99.90;;;;;;6182632;23;20512;-86
2021/05/12 08:30:00;;;;;;;4.65;1.70;;;11.90;99.90;;;;;;6185062;23;20017;-87
2021/05/12 08:32:27;;;;;;;5.20;1.83;;;11.90;99.90;;;;;;6182610;23;20078;-85
2021/05/12 08:34:58;;;;;;;5.15;1.75;;;11.90;99.90;;;;;;6183965;23;20048;-86
2021/05/12 08:37:25;;;;;;;4.15;1.90;;;11.90;99.90;;;;;;6182788;23;20021;-86
2021/05/12 08:39:52;;;;;;;4.97;1.90;;;12.00;99.90;;;;;;6184964;23;20025;-86
2021/05/12 08:42:19;;;;;;;6.68;2.00;;;11.90;99.90;;;;;;6182887;23;20047;-85
2021/05/12 08:44:50;;;;;;;4.38;1.88;;;11.90;99.90;;;;;;6185247;23;20013;-86
2021/05/12 08:47:19;;;;;;;5.05;1.90;;;12.00;99.90;;;;;;6183126;23;20067;-86
2021/05/12 08:49:47;;;;;;;3.03;2.00;;;12.00;99.90;;;;;;6183415;23;20013;-86
2021/05/12 08:52:14;;;;;;;4.57;2.10;;;12.00;99.90;;;;;;6183144;23;20017;-85
2021/05/12 08:54:41;;;;;;;4.28;2.15;;;12.00;99.90;;;;;;6183149;23;20017;-85
2021/05/12 08:57:08;;;;;;;4.93;1.83;;;11.90;99.90;;;;;;6182849;23;20017;-84
2021/05/12 08:59:35;;;;;;;3.72;1.73;;;12.00;99.90;;;;;;6184935;23;20021;-85
2021/05/12 09:02:06;;;;;;;4.47;1.80;;;12.00;99.90;;;;;;6183441;23;20017;-83
2021/05/12 09:04:33;;;;;;;5.72;2.30;;;12.00;99.90;;;;;;6184371;23;20020;-85
2021/05/12 09:07:00;;;;;;;6.05;2.60;;;12.00;99.90;;;;;;6183030;23;20013;-85
2021/05/12 09:09:27;;;;;;;5.78;2.15;;;12.00;99.90;;;;;;6182842;23;20025;-85
2021/05/12 09:11:57;;;;;;;5.03;2.10;;;12.00;99.90;;;;;;6183121;23;20322;-85
2021/05/12 09:14:29;;;;;;;7.60;2.05;;;12.00;99.90;;;;;;6184185;23;20027;-85
2021/05/12 09:16:56;;;;;;;5.55;1.90;;;12.10;99.90;;;;;;6183252;23;20463;-83
2021/05/12 09:19:25;;;;;;;6.85;2.20;;;12.10;99.90;;;;;;6184326;23;20021;-85
2021/05/12 09:21:52;;;;;;;8.03;2.70;;;12.10;99.90;;;;;;6184651;23;20013;-85
2021/05/12 09:24:28;;;;;;;5.35;2.58;;;12.20;99.90;;;;;;6182778;23;20017;-85
2021/05/12 09:27:03;;;;;;;3.97;1.90;;;12.20;99.90;;;;;;6183262;23;20464;-84
2021/05/12 09:29:40;;;;;;;5.70;3.20;;;12.20;99.90;;;;;;6182664;23;20013;-84
2021/05/12 09:32:18;;;;;;;5.60;2.10;;;12.20;99.90;;;;;;6183929;23;20069;-85
2021/05/12 09:34:58;;;;;;;5.35;2.20;;;12.30;99.90;;;;;;6184425;23;20472;-84
2021/05/12 09:37:33;;;;;;;5.78;1.92;;;12.20;99.90;;;;;;6181990;23;20013;-84
2021/05/12 09:40:04;;;;;;;5.40;1.75;;;12.20;99.90;;;;;;6182716;23;20021;-85
2021/05/12 09:42:31;;;;;;;6.72;1.70;;;12.30;99.90;;;;;;6182430;23;20021;-86
2021/05/12 09:45:11;;;;;;;7.32;2.50;;;12.30;99.90;;;;;;6182856;23;20016;-87
2021/05/12 09:47:40;;;;;;;9.20;2.80;;;12.30;99.90;;;;;;6182443;23;20017;-88
2021/05/12 09:50:17;;;;;;;7.72;2.50;;;12.40;99.90;;;;;;6182653;23;20022;-87
2021/05/12 09:52:45;;;;;;;19.25;3.70;;;12.40;99.90;;;;;;6182986;23;20084;-87
2021/05/12 09:55:15;;;;;;;14.35;2.85;;;12.40;99.90;;;;;;6184030;23;20392;-88
2021/05/12 09:58:22;;;;;;;15.15;3.13;;;12.50;99.90;;;;;;6182764;23;20071;-86
2021/05/12 10:00:52;;;;;;;15.07;3.60;;;12.60;99.90;;;;;;6097522;23;20408;-86
2021/05/12 10:03:24;;;;;;;12.23;3.22;;;12.60;99.90;;;;;;6097843;23;20021;-88
2021/05/12 10:05:57;;;;;;;26.50;4.50;;;12.60;99.90;;;;;;6097932;23;20073;-88
2021/05/12 10:08:33;;;;;;;24.38;4.20;;;12.70;99.90;;;;;;6098361;23;20094;-88
2021/05/12 10:11:01;;;;;;;24.23;4.57;;;12.80;99.90;;;;;;6098338;23;20022;-89
2021/05/12 10:13:29;;;;;;;;;;;12.90;99.90;;;;;;6098576;23;20022;-89
2021/05/12 10:15:57;;;;;;;24.67;4.80;;;12.90;99.90;;;;;;6099031;23;19917;-91
2021/05/12 10:18:24;;;;;;;22.27;3.83;;;13.00;99.90;;;;;;6122257;23;20030;-88
2021/05/12 10:20:58;;;;;;;26.45;4.80;;;13.00;99.90;;;;;;6098494;23;20025;-88
2021/05/12 10:23:26;;;;;;;24.35;4.32;;;13.10;99.90;;;;;;6098128;23;20085;-87
2021/05/12 10:25:54;;;;;;;17.50;3.88;;;13.20;99.90;;;;;;6099854;23;20458;-87
2021/05/12 10:28:22;;;;;;;21.30;3.60;;;13.30;99.90;;;;;;6096898;23;20469;-90
2021/05/12 10:30:54;;;;;;;17.05;3.47;;;13.40;99.90;;;;;;6090064;23;20052;-88
2021/05/12 10:33:46;;;;;;;26.65;4.53;;;13.50;99.90;;;;;;6096613;23;20433;-90
2021/05/12 10:36:20;;;;;;;31.55;4.88;;;13.70;99.90;;;;;;6181723;23;20457;-89
2021/05/12 10:38:48;;;;;;;;;;;13.80;99.90;;;;;;6182871;23;20009;-88
2021/05/12 10:41:41;;;;;;;23.52;4.30;;;14.00;99.90;;;;;;6181661;23;19916;-89
2021/05/12 10:44:18;;;;;;;24.60;4.13;;;14.10;99.90;;;;;;6182820;23;20079;-88
2021/05/12 10:47:09;;;;;;;26.58;4.38;;;14.30;99.90;;;;;;6184089;23;20036;-89
2021/05/12 10:49:37;;;;;;;28.80;3.70;;;14.40;99.90;;;;;;6184273;23;20020;-88
2021/05/12 10:52:09;;;;;;;20.63;3.85;;;14.50;99.90;;;;;;6186617;23;20021;-91
2021/05/12 10:54:40;;;;;;;27.05;3.65;;;14.50;99.90;;;;;;6189442;23;20464;-88
2021/05/12 10:57:09;;;;;;;18.63;4.35;;;14.60;99.90;;;;;;6187364;23;20072;-89
2021/05/12 10:59:41;;;;;;;20.95;5.25;;;14.60;99.90;;;;;;6184954;23;20013;-90
2021/05/12 11:02:08;;;;;;;26.75;4.55;;;14.70;99.90;;;;;;6184584;23;20019;-89
2021/05/12 11:04:35;;;;;;;21.38;3.42;;;14.80;99.90;;;;;;6185168;23;20025;-88
2021/05/12 11:07:04;;;;;;;18.23;3.45;;;14.90;99.90;;;;;;6184530;23;20013;-90
2021/05/12 11:09:39;;;;;;;23.60;3.67;;;15.00;99.90;;;;;;6184946;23;20017;-88
2021/05/12 11:12:11;;;;;;;15.40;3.75;;;15.00;99.90;;;;;;6184189;23;20076;-89
2021/05/12 11:14:39;;;;;;;26.27;3.80;;;15.00;99.90;;;;;;6184538;23;20028;-88
2021/05/12 11:17:15;;;;;;;22.77;3.55;;;15.00;99.90;;;;;;6184575;23;20028;-89
2021/05/12 11:19:43;;;;;;;16.40;3.28;;;15.00;99.90;;;;;;6184440;23;20013;-89
2021/05/12 11:25:08;;;;;;;15.93;2.78;;;14.90;99.90;;;;;;6186261;23;20017;-92
2021/05/12 11:27:54;;;;;;;19.75;3.97;;;14.80;99.90;;;;;;6183586;23;20025;-88
2021/05/12 11:33:07;;;;;;;20.52;3.63;;;14.70;99.90;;;;;;6185772;23;20013;-89
2021/05/12 11:35:35;;;;;;;18.58;3.63;;;14.70;99.90;;;;;;6184762;23;20044;-88
2021/05/12 11:38:15;;;;;;;21.93;4.40;;;14.60;99.90;;;;;;6185622;23;20024;-88
2021/05/12 11:40:58;;;;;;;18.70;3.92;;;14.70;99.90;;;;;;6184999;23;20091;-91
2021/05/12 11:44:00;;;;;;;25.08;3.95;;;14.70;99.90;;;;;;6184886;23;20024;-88
2021/05/12 11:46:39;;;;;;;26.63;3.47;;;14.60;99.90;;;;;;6182093;23;20017;-88
2021/05/12 11:49:09;;;;;;;18.00;3.90;;;14.70;99.90;;;;;;6183828;23;20025;-87
2021/05/12 11:51:38;;;;;;;24.50;3.58;;;14.70;99.90;;;;;;6184191;23;20025;-87
2021/05/12 11:54:25;;;;;;;34.53;4.63;;;14.70;99.90;;;;;;6183514;23;20029;-88
2021/05/12 11:56:58;;;;;;;21.77;3.58;;;14.80;99.90;;;;;;6184208;23;20526;-87
2021/05/12 11:59:27;;;;;;;18.70;3.17;;;14.80;99.90;;;;;;6183504;23;20388;-88
2021/05/12 12:02:04;;;;;;;17.40;4.38;;;14.70;99.90;;;;;;6183792;23;20479;-87
2021/05/12 12:04:40;;;;;;;22.77;3.45;;;14.70;99.90;;;;;;6183999;23;20071;-87
2021/05/12 12:07:08;;;;;;;25.58;4.18;;;14.60;99.90;;;;;;6183370;23;20071;-85
2021/05/12 12:09:35;;;;;;;27.67;4.63;;;14.60;99.90;;;;;;6183943;23;20080;-84
2021/05/12 12:12:02;;;;;;;21.23;3.42;;;14.60;99.90;;;;;;6185479;23;20093;-86
2021/05/12 12:14:31;;;;;;;21.20;3.83;;;14.50;99.90;;;;;;6184229;23;20048;-84
2021/05/12 12:16:58;;;;;;;;;;;14.40;99.90;;;;;;6178605;23;20020;-83
2021/05/12 12:19:25;;;;;;;22.15;3.83;;;14.30;99.90;;;;;;6180595;23;19916;-86
2021/05/12 12:21:57;;;;;;;23.80;4.35;;;14.20;99.90;;;;;;6181764;23;20031;-86
2021/05/12 12:24:26;;;;;;;28.13;4.32;;;14.10;99.90;;;;;;6182416;23;20071;-85
2021/05/12 12:26:55;;;;;;;9.48;1.73;;;14.00;99.90;;;;;;6181077;23;20472;-84
2021/05/12 12:29:28;;;;;;;4.32;0.60;;;13.90;99.90;;;;;;6181353;23;20072;-84
2021/05/12 12:32:02;;;;;;;4.18;0.40;;;13.20;99.90;;;;;;6182876;23;20021;-84
2021/05/12 12:34:34;;;;;;;6.25;0.80;;;12.60;99.90;;;;;;6183203;23;20064;-85
2021/05/12 12:37:14;;;;;;;3.95;0.55;;;12.00;99.90;;;;;;6183640;23;20020;-85
2021/05/12 12:39:48;;;;;;;4.95;0.60;;;11.40;99.90;;;;;;6182859;23;20020;-87
2021/05/12 12:42:22;;;;;;;4.28;0.73;;;11.00;99.90;;;;;;6183048;23;20020;-85
2021/05/12 12:44:49;;;;;;;3.65;0.93;;;10.70;99.90;;;;;;6183282;23;20017;-85
2021/05/12 12:47:19;;;;;;;3.95;0.47;;;10.40;99.90;;;;;;6182687;23;20021;-84
2021/05/12 12:50:09;;;;;;;2.50;0.40;;;10.10;99.90;;;;;;6183513;23;20357;-86
2021/05/12 12:52:39;;;;;;;4.13;0.60;;;10.00;99.90;;;;;;6182788;23;20068;-85
2021/05/12 12:55:12;;;;;;;5.00;0.70;;;9.90;99.90;;;;;;6183827;23;20060;-87
2021/05/12 12:57:43;;;;;;;1.30;0.40;;;9.70;99.90;;;;;;6183042;23;20460;-86
2021/05/12 13:00:13;;;;;;;2.13;0.40;;;9.60;99.90;;;;;;6182249;23;20021;-84
2021/05/12 13:03:08;;;;;;;2.10;0.40;;;9.60;99.90;;;;;;6183446;23;20024;-84
2021/05/12 13:05:42;;;;;;;2.85;0.40;;;9.50;99.90;;;;;;6182330;23;20021;-82
2021/05/12 13:08:13;;;;;;;3.10;0.65;;;9.60;99.90;;;;;;6183686;23;20019;-87
2021/05/12 13:10:59;;;;;;;4.07;0.50;;;9.50;99.90;;;;;;6183226;23;20017;-86
2021/05/12 13:13:30;;;;;;;2.83;0.47;;;9.60;99.90;;;;;;6181946;23;20032;-86
2021/05/12 13:15:59;;;;;;;5.88;1.02;;;9.60;99.90;;;;;;6183016;23;20456;-87
2021/05/12 13:18:31;;;;;;;4.07;0.55;;;9.70;99.90;;;;;;6182766;23;20024;-86
2021/05/12 13:21:01;;;;;;;4.28;0.60;;;9.80;99.90;;;;;;6183565;23;20024;-86
2021/05/12 13:23:31;;;;;;;2.47;0.65;;;9.80;99.90;;;;;;6184906;23;20017;-89
2021/05/12 13:26:03;;;;;;;9.55;1.08;;;10.00;99.90;;;;;;6185650;23;20017;-86
2021/05/12 13:28:36;;;;;;;6.45;0.70;;;10.20;99.90;;;;;;6183357;23;20013;-87
2021/05/12 13:31:04;;;;;;;8.77;0.80;;;10.40;99.90;;;;;;6182588;23;20025;-86
2021/05/12 13:33:32;;;;;;;7.82;0.90;;;10.50;99.90;;;;;;6180597;23;20028;-88
2021/05/12 13:35:59;;;;;;;4.18;0.50;;;10.70;99.90;;;;;;6181501;23;20017;-86
2021/05/12 13:38:26;;;;;;;5.80;0.60;;;10.80;99.90;;;;;;6181728;23;20020;-89
2021/05/12 13:40:53;;;;;;;3.80;0.50;;;10.80;99.90;;;;;;6182667;23;20041;-87
2021/05/12 13:43:20;;;;;;;3.53;0.57;;;10.90;99.90;;;;;;6179964;23;20020;-87
2021/05/12 13:45:48;;;;;;;0.95;0.40;;;11.00;99.90;;;;;;6181070;23;20996;-89
2021/05/12 13:48:16;;;;;;;2.17;0.30;;;11.00;99.90;;;;;;6180718;23;20024;-89
2021/05/12 13:50:44;;;;;;;;;;;11.00;99.90;;;;;;6181591;23;20017;-88
2021/05/12 13:56:09;;;;;;;1.63;0.20;;;11.10;99.90;;;;;;6182630;23;20013;-88
2021/05/12 14:03:58;;;;;;;2.30;0.47;;;11.10;99.90;;;;;;6181869;23;20512;-87
2021/05/12 14:08:58;;;;;;;1.58;0.45;;;11.30;99.90;;;;;;6182557;23;19986;-86
2021/05/12 14:11:27;;;;;;;1.05;0.40;;;11.40;99.90;;;;;;6179767;23;20101;-86
2021/05/12 14:19:15;;;;;;;1.67;0.30;;;11.50;99.90;;;;;;6091397;23;20022;-86
2021/05/12 14:21:43;;;;;;;1.48;0.43;;;11.60;99.90;;;;;;6092265;23;20119;-86
2021/05/12 14:24:09;;;;;;;4.38;0.60;;;11.60;99.90;;;;;;6090794;23;20026;-86
2021/05/12 14:26:47;;;;;;;4.00;0.50;;;11.60;99.90;;;;;;6091996;23;20073;-87
2021/05/12 14:29:17;;;;;;;0.60;0.25;;;11.70;99.90;;;;;;6091653;23;20374;-85
2021/05/12 14:31:45;;;;;;;1.25;0.40;;;11.90;99.90;;;;;;6091339;23;20484;-86
2021/05/12 14:34:12;;;;;;;3.80;0.50;;;11.90;99.90;;;;;;6090605;23;20041;-88
2021/05/12 14:36:39;;;;;;;2.20;0.32;;;12.00;99.90;;;;;;6091166;23;20026;-87
2021/05/12 14:39:07;;;;;;;2.47;0.40;;;12.10;99.90;;;;;;6090983;23;20102;-87
2021/05/12 14:41:34;;;;;;;0.82;0.30;;;12.20;99.90;;;;;;6091633;23;20042;-87
2021/05/12 14:44:02;;;;;;;2.03;0.40;;;12.30;99.90;;;;;;6090983;23;20026;-88
2021/05/12 14:46:29;;;;;;;3.15;0.30;;;12.30;99.90;;;;;;6060969;23;20030;-87
2021/05/12 14:48:56;;;;;;;2.20;0.50;;;12.30;99.90;;;;;;6084200;23;20014;-86
2021/05/12 14:51:25;;;;;;;4.82;0.60;;;12.20;99.90;;;;;;6090498;23;21490;-88
2021/05/12 14:53:58;;;;;;;5.55;0.77;;;12.10;99.90;;;;;;6136981;23;20025;-87
2021/05/12 15:04:17;;;;;;;2.45;0.57;;;12.00;99.90;;;;;;6180116;23;20035;-85
2021/05/12 15:06:49;;;;;;;3.15;0.60;;;11.90;99.90;;;;;;6178067;23;20029;-87
2021/05/12 15:09:16;;;;;;;2.10;0.50;;;11.90;99.90;;;;;;6178883;23;20412;-87
2021/05/12 15:11:43;;;;;;;3.15;0.55;;;11.90;99.90;;;;;;6179397;23;20025;-86
2021/05/12 15:14:13;;;;;;;3.35;0.60;;;11.90;99.90;;;;;;6177664;23;20400;-88
2021/05/12 15:16:40;;;;;;;1.15;0.32;;;11.90;99.90;;;;;;6180574;23;20013;-87
2021/05/12 15:19:07;;;;;;;1.92;0.50;;;11.90;99.90;;;;;;6179100;23;20449;-88
2021/05/12 15:21:34;;;;;;;4.00;0.73;;;11.70;99.90;;;;;;6180271;23;20013;-87
2021/05/12 15:24:01;;;;;;;5.40;0.75;;;11.60;99.90;;;;;;6179723;23;20055;-86
2021/05/12 15:26:28;;;;;;;3.90;0.70;;;11.50;99.90;;;;;;6181350;23;20017;-85
2021/05/12 15:28:55;;;;;;;6.20;1.00;;;11.50;99.90;;;;;;6179882;23;20083;-87
2021/05/12 15:31:25;;;;;;;4.88;0.60;;;11.50;99.90;;;;;;6177610;23;20045;-86
2021/05/12 15:33:53;;;;;;;3.80;0.80;;;11.70;99.90;;;;;;6180518;23;20021;-88
2021/05/12 15:36:20;;;;;;;2.17;0.77;;;11.90;99.90;;;;;;6178534;23;20143;-86
2021/05/12 15:38:47;;;;;;;4.70;0.82;;;12.10;99.90;;;;;;6181703;23;20490;-85
2021/05/12 15:41:14;;;;;;;3.80;1.00;;;12.10;99.90;;;;;;6180960;23;20021;-89
2021/05/12 15:43:43;;;;;;;5.03;1.00;;;12.00;99.90;;;;;;6182823;23;20685;-86
2021/05/12 15:46:10;;;;;;;5.97;1.23;;;12.00;99.90;;;;;;6181445;23;20013;-86
2021/05/12 15:48:37;;;;;;;4.68;1.05;;;12.00;99.90;;;;;;6183482;23;20021;-86
2021/05/12 15:51:12;;;;;;;6.78;1.40;;;11.90;99.90;;;;;;6183212;23;20036;-86
2021/05/12 15:53:39;;;;;;;4.88;1.00;;;11.90;99.90;;;;;;6182760;23;20079;-87
2021/05/12 15:56:10;;;;;;;4.50;0.90;;;11.90;99.90;;;;;;6183448;23;20017;-87
2021/05/12 15:58:55;;;;;;;6.75;1.27;;;11.90;99.90;;;;;;6182322;23;20044;-87
2021/05/12 16:01:23;;;;;;;3.25;0.82;;;11.90;99.90;;;;;;6181688;23;20023;-91
2021/05/12 16:03:50;;;;;;;5.47;1.05;;;12.00;99.90;;;;;;6183420;23;20551;-86
2021/05/12 16:06:17;;;;;;;3.33;1.00;;;12.00;99.90;;;;;;6181313;23;20013;-87
2021/05/12 16:08:48;;;;;;;4.43;0.80;;;12.00;99.90;;;;;;6182406;23;20024;-87
2021/05/12 16:11:17;;;;;;;3.35;0.82;;;12.00;99.90;;;;;;6179832;23;20013;-87
2021/05/12 16:13:44;;;;;;;8.75;1.00;;;11.90;99.90;;;;;;6180244;23;20017;-87
2021/05/12 16:16:16;;;;;;;4.75;0.70;;;11.90;99.90;;;;;;6179775;23;20014;-87
2021/05/12 16:18:43;;;;;;;3.05;0.80;;;12.10;99.90;;;;;;6180993;23;20032;-86
2021/05/12 16:21:11;;;;;;;4.13;0.95;;;12.30;99.90;;;;;;6180612;23;20087;-86
2021/05/12 16:23:40;;;;;;;2.60;1.00;;;12.50;99.90;;;;;;6180651;23;20021;-86
2021/05/12 16:26:07;;;;;;;3.28;0.70;;;12.60;99.90;;;;;;6181997;23;20028;-86
2021/05/12 16:28:38;;;;;;;4.32;1.05;;;12.60;99.90;;;;;;6181834;23;20613;-87
2021/05/12 16:31:05;;;;;;;3.63;0.90;;;12.60;99.90;;;;;;6181116;23;20009;-87
2021/05/12 16:33:32;;;;;;;5.75;1.15;;;12.60;99.90;;;;;;6181628;23;20024;-89
2021/05/12 16:35:59;;;;;;;6.82;1.38;;;12.70;99.90;;;;;;6181861;23;20579;-86
2021/05/12 16:38:26;;;;;;;5.47;1.15;;;12.70;99.90;;;;;;6181219;23;20024;-87
2021/05/12 16:40:56;;;;;;;4.43;1.20;;;12.80;99.90;;;;;;6182630;23;20020;-92
2021/05/12 16:43:32;;;;;;;5.35;1.48;;;12.80;99.90;;;;;;6181815;23;20041;-87
2021/05/12 16:45:59;;;;;;;5.25;1.40;;;12.80;99.90;;;;;;6179719;23;20393;-88
2021/05/12 16:48:26;;;;;;;4.63;1.05;;;12.80;99.90;;;;;;6180836;23;20021;-91
2021/05/12 16:50:58;;;;;;;5.70;1.20;;;12.70;99.90;;;;;;6179204;23;20025;-92
2021/05/12 16:53:26;;;;;;;3.90;0.88;;;12.60;99.90;;;;;;6178707;23;20021;-90
2021/05/12 16:55:53;;;;;;;7.13;1.15;;;12.50;99.90;;;;;;6178954;23;20067;-90
2021/05/12 16:58:20;;;;;;;6.75;1.05;;;12.40;99.90;;;;;;6178055;23;20079;-89
2021/05/12 17:00:47;;;;;;;3.97;1.08;;;12.30;99.90;;;;;;6180475;23;20404;-89
2021/05/12 17:03:14;;;;;;;6.15;1.33;;;12.40;99.90;;;;;;6178560;23;20024;-90
2021/05/12 17:05:41;;;;;;;5.72;1.50;;;12.40;99.90;;;;;;6181516;23;20028;-88
2021/05/12 17:08:09;;;;;;;6.32;1.00;;;12.40;99.90;;;;;;6180842;23;20021;-90
2021/05/12 17:10:37;;;;;;;4.05;1.30;;;12.40;99.90;;;;;;6181839;23;20016;-89
2021/05/12 17:13:05;;;;;;;5.22;1.30;;;12.40;99.90;;;;;;6180800;23;20021;-89
2021/05/12 17:15:33;;;;;;;4.35;1.02;;;12.40;99.90;;;;;;6180750;23;20345;-88
2021/05/12 17:18:00;;;;;;;2.42;0.90;;;12.50;99.90;;;;;;6181223;23;20017;-89
2021/05/12 17:20:27;;;;;;;5.90;1.10;;;12.70;99.90;;;;;;6182777;23;20445;-89
2021/05/12 17:22:55;;;;;;;6.10;0.98;;;12.90;99.90;;;;;;6181926;23;20092;-91
2021/05/12 17:25:22;;;;;;;6.85;1.27;;;12.90;99.90;;;;;;6180551;23;20043;-90
2021/05/12 17:27:59;;;;;;;2.60;1.15;;;12.90;99.90;;;;;;6181552;23;20657;-90
2021/05/12 17:30:28;;;;;;;3.50;1.15;;;13.00;99.90;;;;;;6182860;23;20021;-90
2021/05/12 17:32:56;;;;;;;5.70;1.45;;;13.10;99.90;;;;;;6184504;23;20028;-91
2021/05/12 17:35:24;;;;;;;6.07;1.40;;;13.10;99.90;;;;;;6182969;23;20063;-88
2021/05/12 17:37:56;;;;;;;6.00;1.30;;;13.30;99.90;;;;;;6182646;23;20079;-89
2021/05/12 17:40:26;;;;;;;6.90;1.40;;;13.30;99.90;;;;;;6180403;23;20083;-91
2021/05/12 17:42:55;;;;;;;5.60;1.10;;;13.20;99.90;;;;;;6183510;23;20051;-89
2021/05/12 17:45:22;;;;;;;4.00;1.08;;;13.00;99.90;;;;;;6182969;23;20028;-90
2021/05/12 17:47:53;;;;;;;6.47;1.20;;;12.80;99.90;;;;;;6181144;23;20017;-89
2021/05/12 17:50:22;;;;;;;6.05;1.33;;;12.70;99.90;;;;;;6181119;23;20021;-90
2021/05/12 17:52:49;;;;;;;7.60;1.20;;;12.90;99.90;;;;;;6181133;23;20476;-87
2021/05/12 17:55:16;;;;;;;6.00;1.45;;;12.80;99.90;;;;;;6182013;23;20015;-88
2021/05/12 17:57:43;;;;;;;4.03;1.00;;;12.90;99.90;;;;;;6181432;23;20036;-88
2021/05/12 18:00:11;;;;;;;5.60;1.20;;;12.90;99.90;;;;;;6183629;23;20083;-87
2021/05/12 18:02:39;;;;;;;4.30;0.95;;;12.90;99.90;;;;;;6183898;23;20465;-88
2021/05/12 18:05:14;;;;;;;6.20;1.30;;;12.90;99.90;;;;;;6181116;23;20021;-89
2021/05/12 18:07:43;;;;;;;7.82;1.30;;;12.90;99.90;;;;;;6181732;23;20071;-88
2021/05/12 18:10:14;;;;;;;;;;;12.90;99.90;;;;;;6181464;23;20068;-88
2021/05/12 18:17:57;;;;;;;4.03;1.17;;;13.00;99.90;;;;;;6181691;23;20610;-87
2021/05/12 18:20:25;;;;;;;7.57;1.52;;;13.10;99.90;;;;;;6179471;23;20021;-89
2021/05/12 18:22:52;;;;;;;5.00;1.17;;;13.10;99.90;;;;;;6182239;23;20036;-88
2021/05/12 18:25:19;;;;;;;6.95;3.00;;;13.10;99.90;;;;;;6180240;23;20544;-89
2021/05/12 18:27:47;;;;;;;4.97;1.95;;;13.10;99.90;;;;;;6180875;23;20017;-86
2021/05/12 18:30:17;;;;;;;4.63;1.73;;;13.00;99.90;;;;;;6181822;23;20404;-89
2021/05/12 18:32:44;;;;;;;4.38;1.42;;;12.80;99.90;;;;;;6180351;23;20084;-90
2021/05/12 18:35:19;;;;;;;5.63;2.10;;;12.70;99.90;;;;;;6180375;23;20017;-88
2021/05/12 18:38:18;;;;;;;5.43;1.30;;;12.70;99.90;;;;;;6180099;23;20067;-90
2021/05/12 18:40:36;;;;;;;6.97;3.00;;;12.50;99.90;;;;;;6180550;23;20088;-87
2021/05/12 18:43:04;;;;;;;11.60;3.17;;;12.40;99.90;;;;;;6179936;23;20036;-90
2021/05/12 18:45:36;;;;;;;5.85;2.08;;;12.40;99.90;;;;;;6180796;23;20642;-87
2021/05/12 18:50:34;;;;;;;8.27;3.03;;;12.20;99.90;;;;;;6181291;23;20519;-87
2021/05/12 18:53:01;;;;;;;6.65;2.90;;;12.20;99.90;;;;;;6179844;23;20017;-88
2021/05/12 18:55:28;;;;;;;9.55;2.85;;;12.20;99.90;;;;;;6179430;23;20392;-89
2021/05/12 18:57:55;;;;;;;5.80;1.90;;;12.10;99.90;;;;;;6181027;23;20134;-87
2021/05/12 19:00:24;;;;;;;12.38;3.80;;;12.10;99.90;;;;;;6179484;23;20025;-89
2021/05/12 19:02:55;;;;;;;7.82;3.65;;;12.10;99.90;;;;;;6179985;23;20032;-89
2021/05/12 19:05:29;;;;;;;8.02;2.50;;;12.10;99.90;;;;;;6179785;23;20416;-87
2021/05/12 19:10:39;;;;;;;8.10;1.80;;;12.00;99.90;;;;;;6182317;23;20083;-87
2021/05/12 19:13:23;;;;;;;8.73;1.70;;;11.90;99.90;;;;;;6183327;23;20013;-86
2021/05/12 19:21:27;;;;;;;11.50;1.73;;;11.80;99.90;;;;;;6092654;23;20588;-87
2021/05/12 19:40:09;;;;;;;10.50;3.25;;;11.70;99.90;;;;;;6035405;23;20467;-88
2021/05/12 19:42:39;;;;;;;9.70;2.97;;;11.60;99.90;;;;;;6034892;23;20021;-86
2021/05/12 19:45:09;;;;;;;13.35;4.32;;;11.60;99.90;;;;;;6033034;23;20444;-88
2021/05/12 19:47:36;;;;;;;9.10;2.60;;;11.60;99.90;;;;;;6033406;23;20027;-87
2021/05/12 19:50:12;;;;;;;10.70;3.33;;;11.50;99.90;;;;;;6034167;23;20023;-88
2021/05/12 19:52:44;;;;;;;11.35;2.63;;;11.50;99.90;;;;;;6008763;23;20023;-88
2021/05/12 20:00:28;;;;;;;7.57;2.50;;;11.40;99.90;;;;;;6085517;23;20073;-84
2021/05/12 20:02:55;;;;;;;11.10;4.88;;;11.40;99.90;;;;;;6082540;23;20319;-85
2021/05/12 20:05:28;;;;;;;11.00;2.67;;;11.30;99.90;;;;;;6090355;23;20359;-85
2021/05/12 20:10:34;;;;;;;7.95;1.88;;;11.40;99.90;;;;;;6085177;23;20387;-85
2021/05/12 20:13:07;;;;;;;9.48;2.05;;;11.30;99.90;;;;;;6067027;23;20018;-85
2021/05/12 20:15:38;;;;;;;9.73;2.03;;;11.30;99.90;;;;;;6100385;23;20400;-84
2021/05/12 20:18:05;;;;;;;12.82;3.70;;;11.30;99.90;;;;;;6180210;23;20388;-85
2021/05/12 20:20:33;;;;;;;11.57;2.67;;;11.30;99.90;;;;;;6181939;23;20017;-86
2021/05/12 20:23:02;;;;;;;9.63;1.83;;;11.20;99.90;;;;;;6180355;23;20017;-85
2021/05/12 20:25:30;;;;;;;13.52;5.30;;;11.20;99.90;;;;;;6181956;23;20020;-84
2021/05/12 20:28:00;;;;;;;9.93;3.58;;;11.20;99.90;;;;;;6181957;23;20068;-84
2021/05/12 20:30:27;;;;;;;11.25;2.65;;;11.20;99.90;;;;;;6179690;23;20931;-84
2021/05/12 20:38:07;;;;;;;7.32;1.67;;;11.10;99.90;;;;;;6182242;23;20041;-84
2021/05/12 20:40:34;;;;;;;8.52;1.48;;;11.10;99.90;;;;;;6181110;23;20013;-86
2021/05/12 20:43:02;;;;;;;9.82;1.95;;;11.20;99.90;;;;;;6182353;23;20013;-84
2021/05/12 20:45:30;;;;;;;9.70;2.13;;;11.20;99.90;;;;;;6180000;23;20021;-84
2021/05/12 20:48:02;;;;;;;11.15;3.85;;;11.10;99.90;;;;;;6180778;23;20348;-85
2021/05/12 20:50:31;;;;;;;13.25;2.00;;;11.10;99.90;;;;;;6181932;23;20104;-84
2021/05/12 20:52:58;;;;;;;8.13;1.38;;;11.10;99.90;;;;;;6179771;23;20036;-83
2021/05/12 20:55:26;;;;;;;6.93;2.08;;;11.10;99.90;;;;;;6180064;23;20029;-84
2021/05/12 20:57:53;;;;;;;10.68;1.73;;;11.10;99.90;;;;;;6182042;23;20013;-84
2021/05/12 21:00:21;;;;;;;14.07;2.47;;;11.10;99.90;;;;;;6180958;23;20017;-86
2021/05/12 21:02:48;;;;;;;18.60;2.28;;;11.10;99.90;;;;;;6178389;23;20017;-85
2021/05/12 21:05:15;;;;;;;8.48;1.60;;;11.10;99.90;;;;;;6178898;23;20024;-85
2021/05/12 21:07:42;;;;;;;10.43;1.88;;;11.10;99.90;;;;;;6180347;23;20013;-83
2021/05/12 21:10:10;;;;;;;11.50;2.70;;;11.00;99.90;;;;;;6179835;23;20021;-83
2021/05/12 21:12:41;;;;;;;8.45;1.70;;;11.00;99.90;;;;;;6181450;23;20384;-85
2021/05/12 21:15:09;;;;;;;16.95;2.40;;;11.00;99.90;;;;;;6181239;23;20067;-85
2021/05/12 21:17:38;;;;;;;13.25;2.35;;;11.10;99.90;;;;;;6179247;23;20515;-86
2021/05/12 21:20:06;;;;;;;;;;;11.10;99.90;;;;;;6180264;23;20027;-85
2021/05/12 21:23:22;;;;;;;16.75;2.40;;;11.00;99.90;;;;;;6179890;23;19916;-85
2021/05/12 21:25:27;;;;;;;11.25;1.90;;;11.00;99.90;;;;;;6178208;23;20020;-84
2021/05/12 21:27:53;;;;;;;12.45;1.88;;;11.00;99.90;;;;;;6182496;23;20017;-85
2021/05/12 21:30:25;;;;;;;12.73;3.55;;;11.00;99.90;;;;;;6182879;23;20012;-83
2021/05/12 21:32:52;;;;;;;13.50;1.85;;;10.90;99.90;;;;;;6182733;23;20380;-84
2021/05/12 21:35:19;;;;;;;8.88;1.65;;;11.00;99.90;;;;;;6183516;23;20063;-84
2021/05/12 21:37:46;;;;;;;11.95;1.70;;;10.90;99.90;;;;;;6183139;23;20021;-84
2021/05/12 21:40:13;;;;;;;7.20;1.13;;;10.90;99.90;;;;;;6182318;23;20025;-85
2021/05/12 21:42:39;;;;;;;12.95;1.98;;;10.90;99.90;;;;;;6182637;23;20071;-84
2021/05/12 21:45:07;;;;;;;10.00;1.45;;;10.80;99.90;;;;;;6182243;23;20072;-83